sensor_id;sensor_type;location;lat;lon;timestamp;pressure;altitude;pressure_sealevel;temperature;humidity
35443;BME280;21561;55.654;37.592;2023-02-28T00:00:37;99817.75;;;-8.20;100.00
35443;BME280;21561;55.654;37.592;2023-02-28T00:03:04;99822.25;;;-8.28;100.00
35443;BME280;21561;55.654;37.592;2023-02-28T00:05:32;99823.00;;;-8.29;100.00
35443;BME280;21561;55.654;37.592;2023-02-28T00:07:59;99799.44;;;-8.43;100.00
35443;BME280;21561;55.654;37.592;2023-02-28T00:10:28;99800.97;;;-8.45;100.00
35443;BME280;21561;55.654;37.592;2023-02-28T00:13:00;99784.88;;;-8.47;100.00
35443;BME280;21561;55.654;37.592;2023-02-28T00:15:27;99808.84;;;-8.52;100.00
35443;BME280;21561;55.654;37.592;2023-02-28T00:17:54;99791.56;;;-8.59;100.00
35443;BME280;21561;55.654;37.592;2023-02-28T00:20:21;99791.34;;;-8.62;100.00
35443;BME280;21561;55.654;37.592;2023-02-28T00:22:50;99789.91;;;-8.71;100.00
35443;BME280;21561;55.654;37.592;2023-02-28T00:25:20;99797.28;;;-8.74;100.00
35443;BME280;21561;55.654;37.592;2023-02-28T00:27:48;99792.75;;;-8.78;100.00
35443;BME280;21561;55.654;37.592;2023-02-28T00:30:20;99784.78;;;-8.72;100.00
35443;BME280;21561;55.654;37.592;2023-02-28T00:32:48;99781.03;;;-8.77;100.00
35443;BME280;21561;55.654;37.592;2023-02-28T00:35:15;99778.66;;;-8.76;100.00
35443;BME280;21561;55.654;37.592;2023-02-28T00:37:42;99776.13;;;-8.76;100.00
35443;BME280;21561;55.654;37.592;2023-02-28T00:40:10;99775.59;;;-8.72;100.00
35443;BME280;21561;55.654;37.592;2023-02-28T00:43:17;99783.16;;;-8.72;100.00
35443;BME280;21561;55.654;37.592;2023-02-28T00:45:43;99776.91;;;-8.77;100.00
35443;BME280;21561;55.654;37.592;2023-02-28T00:48:10;99771.22;;;-8.74;100.00
35443;BME280;21561;55.654;37.592;2023-02-28T00:50:37;99760.06;;;-8.78;100.00
35443;BME280;21561;55.654;37.592;2023-02-28T00:53:04;99757.03;;;-8.74;100.00
35443;BME280;21561;55.654;37.592;2023-02-28T00:55:31;99748.28;;;-8.79;100.00
35443;BME280;21561;55.654;37.592;2023-02-28T00:57:58;99752.84;;;-8.85;100.00
35443;BME280;21561;55.654;37.592;2023-02-28T01:00:24;99753.81;;;-8.83;100.00
35443;BME280;21561;55.654;37.592;2023-02-28T01:02:51;99746.28;;;-8.83;100.00
35443;BME280;21561;55.654;37.592;2023-02-28T01:05:19;99746.09;;;-8.86;100.00
35443;BME280;21561;55.654;37.592;2023-02-28T01:07:46;99749.25;;;-8.89;100.00
35443;BME280;21561;55.654;37.592;2023-02-28T01:10:12;99754.16;;;-8.90;100.00
35443;BME280;21561;55.654;37.592;2023-02-28T01:12:39;99743.13;;;-8.92;100.00
35443;BME280;21561;55.654;37.592;2023-02-28T01:15:06;99747.16;;;-8.94;100.00
35443;BME280;21561;55.654;37.592;2023-02-28T01:17:33;99744.22;;;-9.00;100.00
35443;BME280;21561;55.654;37.592;2023-02-28T01:20:00;99746.75;;;-9.00;100.00
35443;BME280;21561;55.654;37.592;2023-02-28T01:22:28;99721.91;;;-9.08;100.00
35443;BME280;21561;55.654;37.592;2023-02-28T01:24:55;99727.59;;;-9.10;100.00
35443;BME280;21561;55.654;37.592;2023-02-28T01:27:22;99729.88;;;-9.13;100.00
35443;BME280;21561;55.654;37.592;2023-02-28T01:29:50;99718.94;;;-9.14;100.00
35443;BME280;21561;55.654;37.592;2023-02-28T01:32:17;99703.88;;;-9.14;100.00
35443;BME280;21561;55.654;37.592;2023-02-28T01:34:44;99693.16;;;-9.11;100.00
35443;BME280;21561;55.654;37.592;2023-02-28T01:37:11;99706.38;;;-9.14;100.00
35443;BME280;21561;55.654;37.592;2023-02-28T01:39:37;99705.28;;;-9.17;100.00
35443;BME280;21561;55.654;37.592;2023-02-28T01:42:04;99686.72;;;-9.19;100.00
35443;BME280;21561;55.654;37.592;2023-02-28T01:47:20;99694.91;;;-9.22;100.00
35443;BME280;21561;55.654;37.592;2023-02-28T01:49:48;99675.13;;;-9.17;100.00
35443;BME280;21561;55.654;37.592;2023-02-28T01:52:15;99675.25;;;-9.16;100.00
35443;BME280;21561;55.654;37.592;2023-02-28T01:54:55;99677.63;;;-9.17;100.00
35443;BME280;21561;55.654;37.592;2023-02-28T01:57:27;99658.84;;;-9.23;100.00
35443;BME280;21561;55.654;37.592;2023-02-28T02:00:00;99651.41;;;-9.21;100.00
35443;BME280;21561;55.654;37.592;2023-02-28T02:02:31;99654.91;;;-9.19;100.00
35443;BME280;21561;55.654;37.592;2023-02-28T02:05:06;99655.47;;;-9.23;100.00
35443;BME280;21561;55.654;37.592;2023-02-28T02:07:38;99663.75;;;-9.24;100.00
35443;BME280;21561;55.654;37.592;2023-02-28T02:12:55;99653.38;;;-9.17;100.00
35443;BME280;21561;55.654;37.592;2023-02-28T02:18:35;99636.31;;;-9.21;100.00
35443;BME280;21561;55.654;37.592;2023-02-28T02:21:19;99644.09;;;-9.18;100.00
35443;BME280;21561;55.654;37.592;2023-02-28T02:35:49;99616.22;;;-9.21;100.00
35443;BME280;21561;55.654;37.592;2023-02-28T02:41:25;99611.19;;;-9.21;100.00
35443;BME280;21561;55.654;37.592;2023-02-28T02:44:15;99601.38;;;-9.18;100.00
35443;BME280;21561;55.654;37.592;2023-02-28T02:46:45;99616.88;;;-9.24;100.00
35443;BME280;21561;55.654;37.592;2023-02-28T02:49:24;99598.75;;;-9.19;100.00
35443;BME280;21561;55.654;37.592;2023-02-28T02:51:54;99604.63;;;-9.19;100.00
35443;BME280;21561;55.654;37.592;2023-02-28T02:54:26;99584.97;;;-9.13;100.00
35443;BME280;21561;55.654;37.592;2023-02-28T02:57:00;99606.81;;;-9.12;100.00
35443;BME280;21561;55.654;37.592;2023-02-28T02:59:30;99591.53;;;-9.15;100.00
35443;BME280;21561;55.654;37.592;2023-02-28T03:02:00;99588.22;;;-9.14;100.00
35443;BME280;21561;55.654;37.592;2023-02-28T03:04:32;99574.69;;;-9.16;100.00
35443;BME280;21561;55.654;37.592;2023-02-28T03:07:01;99564.84;;;-9.13;100.00
35443;BME280;21561;55.654;37.592;2023-02-28T03:09:28;99575.56;;;-9.15;100.00
35443;BME280;21561;55.654;37.592;2023-02-28T03:11:56;99561.44;;;-9.13;100.00
35443;BME280;21561;55.654;37.592;2023-02-28T03:19:40;99546.28;;;-9.15;100.00
35443;BME280;21561;55.654;37.592;2023-02-28T03:22:23;99544.75;;;-9.13;100.00
35443;BME280;21561;55.654;37.592;2023-02-28T03:27:41;99538.63;;;-9.16;100.00
35443;BME280;21561;55.654;37.592;2023-02-28T03:30:23;99533.38;;;-9.19;100.00
35443;BME280;21561;55.654;37.592;2023-02-28T03:32:59;99530.75;;;-9.21;100.00
35443;BME280;21561;55.654;37.592;2023-02-28T03:35:33;99522.47;;;-9.20;100.00
35443;BME280;21561;55.654;37.592;2023-02-28T03:38:16;99520.94;;;-9.18;100.00
35443;BME280;21561;55.654;37.592;2023-02-28T03:40:48;99523.09;;;-9.23;100.00
35443;BME280;21561;55.654;37.592;2023-02-28T03:43:24;99510.88;;;-9.18;100.00
35443;BME280;21561;55.654;37.592;2023-02-28T03:45:54;99508.75;;;-9.12;100.00
35443;BME280;21561;55.654;37.592;2023-02-28T03:48:28;99518.06;;;-9.11;100.00
35443;BME280;21561;55.654;37.592;2023-02-28T03:50:58;99501.22;;;-9.12;100.00
35443;BME280;21561;55.654;37.592;2023-02-28T03:53:39;99490.06;;;-9.04;100.00
35443;BME280;21561;55.654;37.592;2023-02-28T03:56:14;99482.50;;;-9.04;100.00
35443;BME280;21561;55.654;37.592;2023-02-28T04:01:25;99490.06;;;-9.04;100.00
35443;BME280;21561;55.654;37.592;2023-02-28T04:03:55;99491.78;;;-9.03;100.00
35443;BME280;21561;55.654;37.592;2023-02-28T04:06:22;99461.63;;;-9.03;100.00
35443;BME280;21561;55.654;37.592;2023-02-28T04:08:50;99469.94;;;-9.04;100.00
35443;BME280;21561;55.654;37.592;2023-02-28T04:13:44;99467.81;;;-8.97;100.00
35443;BME280;21561;55.654;37.592;2023-02-28T04:16:13;99441.94;;;-8.96;100.00
35443;BME280;21561;55.654;37.592;2023-02-28T04:18:58;99445.19;;;-8.97;99.42
35443;BME280;21561;55.654;37.592;2023-02-28T04:21:32;99437.88;;;-8.94;99.59
35443;BME280;21561;55.654;37.592;2023-02-28T04:24:00;99438.84;;;-8.92;99.24
35443;BME280;21561;55.654;37.592;2023-02-28T04:26:34;99438.19;;;-8.90;99.20
35443;BME280;21561;55.654;37.592;2023-02-28T04:29:03;99443.88;;;-8.92;98.93
35443;BME280;21561;55.654;37.592;2023-02-28T04:31:30;99445.41;;;-8.94;98.86
35443;BME280;21561;55.654;37.592;2023-02-28T04:33:57;99439.63;;;-8.93;98.60
35443;BME280;21561;55.654;37.592;2023-02-28T04:36:24;99455.69;;;-8.91;98.92
35443;BME280;21561;55.654;37.592;2023-02-28T04:38:52;99434.59;;;-8.93;98.21
35443;BME280;21561;55.654;37.592;2023-02-28T04:41:19;99432.25;;;-8.90;98.23
35443;BME280;21561;55.654;37.592;2023-02-28T04:43:46;99437.28;;;-8.90;98.10
35443;BME280;21561;55.654;37.592;2023-02-28T04:46:13;99435.75;;;-8.88;97.44
35443;BME280;21561;55.654;37.592;2023-02-28T04:48:40;99414.28;;;-8.83;97.70
35443;BME280;21561;55.654;37.592;2023-02-28T04:51:09;99410.59;;;-8.88;97.05
35443;BME280;21561;55.654;37.592;2023-02-28T04:53:38;99419.44;;;-8.81;96.81
35443;BME280;21561;55.654;37.592;2023-02-28T04:56:06;99399.88;;;-8.86;95.84
35443;BME280;21561;55.654;37.592;2023-02-28T04:58:34;99393.31;;;-8.84;96.14
35443;BME280;21561;55.654;37.592;2023-02-28T05:01:06;99387.59;;;-8.81;95.96
35443;BME280;21561;55.654;37.592;2023-02-28T05:03:39;99381.72;;;-8.81;95.59
35443;BME280;21561;55.654;37.592;2023-02-28T05:06:10;99379.28;;;-8.80;94.55
35443;BME280;21561;55.654;37.592;2023-02-28T05:08:37;99372.72;;;-8.78;94.64
35443;BME280;21561;55.654;37.592;2023-02-28T05:11:07;99381.44;;;-8.73;94.33
35443;BME280;21561;55.654;37.592;2023-02-28T05:13:38;99370.03;;;-8.68;93.69
35443;BME280;21561;55.654;37.592;2023-02-28T05:16:05;99366.16;;;-8.62;92.10
35443;BME280;21561;55.654;37.592;2023-02-28T05:18:32;99363.47;;;-8.52;92.60
35443;BME280;21561;55.654;37.592;2023-02-28T05:20:59;99387.09;;;-8.50;91.66
35443;BME280;21561;55.654;37.592;2023-02-28T05:23:29;99344.69;;;-8.44;91.05
35443;BME280;21561;55.654;37.592;2023-02-28T05:25:56;99363.09;;;-8.45;90.44
35443;BME280;21561;55.654;37.592;2023-02-28T05:28:23;99326.88;;;-8.47;90.05
35443;BME280;21561;55.654;37.592;2023-02-28T05:30:50;99318.34;;;-8.49;90.40
35443;BME280;21561;55.654;37.592;2023-02-28T05:33:16;99332.69;;;-8.48;90.11
35443;BME280;21561;55.654;37.592;2023-02-28T05:35:43;99346.44;;;-8.43;89.35
35443;BME280;21561;55.654;37.592;2023-02-28T05:38:10;99309.13;;;-8.35;89.35
35443;BME280;21561;55.654;37.592;2023-02-28T05:40:38;99321.00;;;-8.33;88.66
35443;BME280;21561;55.654;37.592;2023-02-28T05:43:10;99296.25;;;-8.27;88.30
35443;BME280;21561;55.654;37.592;2023-02-28T05:45:37;99311.34;;;-8.27;88.23
35443;BME280;21561;55.654;37.592;2023-02-28T05:48:04;99288.88;;;-8.23;87.54
35443;BME280;21561;55.654;37.592;2023-02-28T05:50:31;99296.03;;;-8.16;87.61
35443;BME280;21561;55.654;37.592;2023-02-28T05:52:58;99266.88;;;-8.13;87.26
35443;BME280;21561;55.654;37.592;2023-02-28T05:55:24;99282.16;;;-8.10;86.65
35443;BME280;21561;55.654;37.592;2023-02-28T05:57:51;99264.44;;;-8.11;86.58
35443;BME280;21561;55.654;37.592;2023-02-28T06:00:19;99260.53;;;-8.06;86.37
35443;BME280;21561;55.654;37.592;2023-02-28T06:02:46;99253.78;;;-8.07;86.28
35443;BME280;21561;55.654;37.592;2023-02-28T06:05:15;99275.94;;;-8.01;85.92
35443;BME280;21561;55.654;37.592;2023-02-28T06:07:42;99251.81;;;-7.98;85.94
35443;BME280;21561;55.654;37.592;2023-02-28T06:10:11;99255.28;;;-7.96;85.84
35443;BME280;21561;55.654;37.592;2023-02-28T06:12:38;99245.31;;;-7.94;85.18
35443;BME280;21561;55.654;37.592;2023-02-28T06:15:05;99237.06;;;-7.92;85.27
35443;BME280;21561;55.654;37.592;2023-02-28T06:17:32;99220.75;;;-7.83;85.18
35443;BME280;21561;55.654;37.592;2023-02-28T06:19:59;99225.09;;;-7.81;84.55
35443;BME280;21561;55.654;37.592;2023-02-28T06:22:26;99199.22;;;-7.78;84.50
35443;BME280;21561;55.654;37.592;2023-02-28T06:24:53;99212.88;;;-7.75;84.35
35443;BME280;21561;55.654;37.592;2023-02-28T06:27:21;99201.13;;;-7.74;83.99
35443;BME280;21561;55.654;37.592;2023-02-28T06:29:48;99216.44;;;-7.71;83.96
35443;BME280;21561;55.654;37.592;2023-02-28T06:32:15;99223.38;;;-7.67;83.53
35443;BME280;21561;55.654;37.592;2023-02-28T06:34:42;99195.25;;;-7.60;83.77
35443;BME280;21561;55.654;37.592;2023-02-28T06:37:09;99194.09;;;-7.50;83.62
35443;BME280;21561;55.654;37.592;2023-02-28T06:39:36;99183.69;;;-7.41;83.90
35443;BME280;21561;55.654;37.592;2023-02-28T06:42:03;99181.53;;;-7.35;82.87
35443;BME280;21561;55.654;37.592;2023-02-28T06:44:30;99184.91;;;-7.35;82.45
35443;BME280;21561;55.654;37.592;2023-02-28T06:47:03;99170.69;;;-7.18;82.52
35443;BME280;21561;55.654;37.592;2023-02-28T06:49:34;99196.47;;;-7.08;81.80
35443;BME280;21561;55.654;37.592;2023-02-28T06:52:02;99167.38;;;-7.02;80.74
35443;BME280;21561;55.654;37.592;2023-02-28T06:54:29;99169.53;;;-6.93;81.10
35443;BME280;21561;55.654;37.592;2023-02-28T06:56:57;99154.19;;;-6.81;81.43
35443;BME280;21561;55.654;37.592;2023-02-28T06:59:24;99131.66;;;-6.78;81.27
35443;BME280;21561;55.654;37.592;2023-02-28T07:01:51;99127.78;;;-6.72;81.61
35443;BME280;21561;55.654;37.592;2023-02-28T07:04:18;99107.47;;;-6.58;81.58
35443;BME280;21561;55.654;37.592;2023-02-28T07:06:45;99136.41;;;-6.52;81.12
35443;BME280;21561;55.654;37.592;2023-02-28T07:09:12;99103.44;;;-6.38;81.52
35443;BME280;21561;55.654;37.592;2023-02-28T07:11:40;99100.53;;;-6.46;81.19
35443;BME280;21561;55.654;37.592;2023-02-28T07:14:07;99110.16;;;-6.39;81.18
35443;BME280;21561;55.654;37.592;2023-02-28T07:16:35;99107.06;;;-6.33;81.25
35443;BME280;21561;55.654;37.592;2023-02-28T07:19:02;99076.22;;;-6.27;81.52
35443;BME280;21561;55.654;37.592;2023-02-28T07:21:29;99087.41;;;-6.22;82.10
35443;BME280;21561;55.654;37.592;2023-02-28T07:23:56;99069.88;;;-6.19;81.91
35443;BME280;21561;55.654;37.592;2023-02-28T07:26:23;99065.31;;;-6.10;82.48
35443;BME280;21561;55.654;37.592;2023-02-28T07:28:50;99069.22;;;-5.99;82.47
35443;BME280;21561;55.654;37.592;2023-02-28T07:31:17;99061.28;;;-5.88;83.04
35443;BME280;21561;55.654;37.592;2023-02-28T07:33:45;99072.44;;;-5.83;83.48
35443;BME280;21561;55.654;37.592;2023-02-28T07:36:15;99064.84;;;-5.83;84.20
35443;BME280;21561;55.654;37.592;2023-02-28T07:38:44;99043.53;;;-5.72;84.09
35443;BME280;21561;55.654;37.592;2023-02-28T07:41:19;99100.84;;;-5.71;84.02
35443;BME280;21561;55.654;37.592;2023-02-28T07:43:46;99031.81;;;-5.70;84.41
35443;BME280;21561;55.654;37.592;2023-02-28T07:46:16;99034.00;;;-5.60;84.55
35443;BME280;21561;55.654;37.592;2023-02-28T07:48:44;99040.09;;;-5.54;84.16
35443;BME280;21561;55.654;37.592;2023-02-28T07:51:11;99030.81;;;-5.56;84.22
35443;BME280;21561;55.654;37.592;2023-02-28T07:53:38;99047.69;;;-5.54;84.68
35443;BME280;21561;55.654;37.592;2023-02-28T07:56:05;99060.50;;;-5.51;85.42
35443;BME280;21561;55.654;37.592;2023-02-28T07:58:33;99032.81;;;-5.48;85.40
35443;BME280;21561;55.654;37.592;2023-02-28T08:01:08;99010.25;;;-5.44;85.56
35443;BME280;21561;55.654;37.592;2023-02-28T08:03:36;99051.22;;;-5.51;86.14
35443;BME280;21561;55.654;37.592;2023-02-28T08:06:04;98999.59;;;-5.38;85.88
35443;BME280;21561;55.654;37.592;2023-02-28T08:08:32;99017.63;;;-5.30;85.90
35443;BME280;21561;55.654;37.592;2023-02-28T08:11:02;99004.31;;;-5.26;85.71
35443;BME280;21561;55.654;37.592;2023-02-28T08:13:30;99048.41;;;-5.21;85.25
35443;BME280;21561;55.654;37.592;2023-02-28T08:15:57;99013.84;;;-5.21;85.26
35443;BME280;21561;55.654;37.592;2023-02-28T08:18:24;98987.25;;;-5.12;85.37
35443;BME280;21561;55.654;37.592;2023-02-28T08:20:51;98978.53;;;-5.00;85.00
35443;BME280;21561;55.654;37.592;2023-02-28T08:23:18;98981.53;;;-4.89;83.86
35443;BME280;21561;55.654;37.592;2023-02-28T08:25:45;98978.75;;;-4.75;83.30
35443;BME280;21561;55.654;37.592;2023-02-28T08:28:19;98971.63;;;-4.63;82.92
35443;BME280;21561;55.654;37.592;2023-02-28T08:30:45;98967.63;;;-4.58;82.85
35443;BME280;21561;55.654;37.592;2023-02-28T08:33:12;98973.09;;;-4.49;82.62
35443;BME280;21561;55.654;37.592;2023-02-28T08:35:39;98966.16;;;-4.53;83.00
35443;BME280;21561;55.654;37.592;2023-02-28T08:38:06;98924.97;;;-4.49;82.65
35443;BME280;21561;55.654;37.592;2023-02-28T08:40:33;98940.56;;;-4.39;82.06
35443;BME280;21561;55.654;37.592;2023-02-28T08:42:59;98931.44;;;-4.36;82.00
35443;BME280;21561;55.654;37.592;2023-02-28T08:45:26;98927.66;;;-4.25;81.77
35443;BME280;21561;55.654;37.592;2023-02-28T08:47:56;98914.22;;;-4.22;81.66
35443;BME280;21561;55.654;37.592;2023-02-28T08:50:23;98997.59;;;-4.28;81.74
35443;BME280;21561;55.654;37.592;2023-02-28T08:52:50;99000.66;;;-4.35;82.50
35443;BME280;21561;55.654;37.592;2023-02-28T08:55:16;99008.94;;;-4.39;83.03
35443;BME280;21561;55.654;37.592;2023-02-28T08:57:43;98998.13;;;-4.35;83.32
35443;BME280;21561;55.654;37.592;2023-02-28T09:00:10;98996.31;;;-4.38;83.90
35443;BME280;21561;55.654;37.592;2023-02-28T09:02:40;99004.81;;;-4.37;84.75
35443;BME280;21561;55.654;37.592;2023-02-28T09:05:09;98989.69;;;-4.36;85.16
35443;BME280;21561;55.654;37.592;2023-02-28T09:07:36;98956.91;;;-4.31;85.54
35443;BME280;21561;55.654;37.592;2023-02-28T09:10:04;98945.53;;;-4.20;85.38
35443;BME280;21561;55.654;37.592;2023-02-28T09:12:34;98987.97;;;-4.16;85.90
35443;BME280;21561;55.654;37.592;2023-02-28T09:15:02;98972.00;;;-4.13;86.28
35443;BME280;21561;55.654;37.592;2023-02-28T09:17:29;98936.88;;;-4.04;86.28
35443;BME280;21561;55.654;37.592;2023-02-28T09:19:57;98927.69;;;-4.02;86.28
35443;BME280;21561;55.654;37.592;2023-02-28T09:22:24;98924.28;;;-4.03;86.78
35443;BME280;21561;55.654;37.592;2023-02-28T09:24:51;98950.44;;;-4.04;87.03
35443;BME280;21561;55.654;37.592;2023-02-28T09:27:17;98905.75;;;-4.01;87.61
35443;BME280;21561;55.654;37.592;2023-02-28T09:29:44;98907.66;;;-3.96;87.42
35443;BME280;21561;55.654;37.592;2023-02-28T09:32:11;98912.88;;;-3.91;87.28
35443;BME280;21561;55.654;37.592;2023-02-28T09:34:38;98909.56;;;-3.90;87.19
35443;BME280;21561;55.654;37.592;2023-02-28T09:37:05;98895.34;;;-3.87;87.22
35443;BME280;21561;55.654;37.592;2023-02-28T09:39:32;98908.19;;;-3.82;87.29
35443;BME280;21561;55.654;37.592;2023-02-28T09:41:59;98915.91;;;-3.79;87.40
35443;BME280;21561;55.654;37.592;2023-02-28T09:44:41;98915.38;;;-3.70;87.48
35443;BME280;21561;55.654;37.592;2023-02-28T09:52:54;98940.91;;;-3.88;88.60
35443;BME280;21561;55.654;37.592;2023-02-28T09:55:38;98901.25;;;-3.86;89.12
35443;BME280;21561;55.654;37.592;2023-02-28T09:58:26;98883.06;;;-3.76;88.94
35443;BME280;21561;55.654;37.592;2023-02-28T10:01:02;98878.22;;;-3.70;88.65
35443;BME280;21561;55.654;37.592;2023-02-28T10:03:38;98883.28;;;-3.70;88.68
35443;BME280;21561;55.654;37.592;2023-02-28T10:06:20;98868.19;;;-3.67;88.42
35443;BME280;21561;55.654;37.592;2023-02-28T10:11:25;98866.41;;;-3.69;88.69
35443;BME280;21561;55.654;37.592;2023-02-28T10:14:18;98890.22;;;-3.66;88.34
35443;BME280;21561;55.654;37.592;2023-02-28T10:17:10;98870.91;;;-3.62;88.40
35443;BME280;21561;55.654;37.592;2023-02-28T10:19:41;98882.69;;;-3.62;88.36
35443;BME280;21561;55.654;37.592;2023-02-28T10:22:20;98849.84;;;-3.59;88.08
35443;BME280;21561;55.654;37.592;2023-02-28T10:24:51;98847.78;;;-3.70;88.70
35443;BME280;21561;55.654;37.592;2023-02-28T10:29:49;98851.47;;;-3.61;88.70
35443;BME280;21561;55.654;37.592;2023-02-28T10:32:18;98876.94;;;-3.58;88.36
35443;BME280;21561;55.654;37.592;2023-02-28T10:34:52;98828.72;;;-3.60;88.63
35443;BME280;21561;55.654;37.592;2023-02-28T10:37:22;98866.69;;;-3.61;88.63
35443;BME280;21561;55.654;37.592;2023-02-28T10:39:49;98824.28;;;-3.66;89.04
35443;BME280;21561;55.654;37.592;2023-02-28T10:42:27;98820.84;;;-3.68;89.38
35443;BME280;21561;55.654;37.592;2023-02-28T10:47:33;98809.06;;;-3.66;89.82
35443;BME280;21561;55.654;37.592;2023-02-28T10:50:01;98820.72;;;-3.71;90.09
35443;BME280;21561;55.654;37.592;2023-02-28T10:52:39;98852.84;;;-3.70;90.56
35443;BME280;21561;55.654;37.592;2023-02-28T10:55:23;98802.38;;;-3.63;90.58
35443;BME280;21561;55.654;37.592;2023-02-28T10:57:52;98893.66;;;-3.63;90.85
35443;BME280;21561;55.654;37.592;2023-02-28T11:00:20;98831.84;;;-3.67;91.41
35443;BME280;21561;55.654;37.592;2023-02-28T11:02:48;98809.59;;;-3.74;92.02
35443;BME280;21561;55.654;37.592;2023-02-28T11:05:25;98797.06;;;-3.70;92.10
35443;BME280;21561;55.654;37.592;2023-02-28T11:08:14;98819.09;;;-3.69;92.50
35443;BME280;21561;55.654;37.592;2023-02-28T11:10:58;98800.75;;;-3.61;92.52
35443;BME280;21561;55.654;37.592;2023-02-28T11:13:33;98788.00;;;-3.63;92.82
35443;BME280;21561;55.654;37.592;2023-02-28T11:16:04;98806.03;;;-3.55;92.55
35443;BME280;21561;55.654;37.592;2023-02-28T11:18:54;98799.13;;;-3.59;93.21
35443;BME280;21561;55.654;37.592;2023-02-28T11:21:25;98784.75;;;-3.60;93.38
35443;BME280;21561;55.654;37.592;2023-02-28T11:24:00;98766.88;;;-3.63;94.20
35443;BME280;21561;55.654;37.592;2023-02-28T11:26:43;98777.03;;;-3.63;94.53
35443;BME280;21561;55.654;37.592;2023-02-28T11:29:24;98761.81;;;-3.63;94.53
35443;BME280;21561;55.654;37.592;2023-02-28T11:34:32;98804.09;;;-3.62;94.41
35443;BME280;21561;55.654;37.592;2023-02-28T11:37:00;98755.00;;;-3.65;94.73
35443;BME280;21561;55.654;37.592;2023-02-28T11:39:28;98765.97;;;-3.66;94.52
35443;BME280;21561;55.654;37.592;2023-02-28T11:42:11;98756.84;;;-3.60;94.78
35443;BME280;21561;55.654;37.592;2023-02-28T11:45:01;98734.81;;;-3.61;94.43
35443;BME280;21561;55.654;37.592;2023-02-28T11:50:20;98748.28;;;-3.62;94.71
35443;BME280;21561;55.654;37.592;2023-02-28T11:52:54;98735.97;;;-3.53;94.61
35443;BME280;21561;55.654;37.592;2023-02-28T11:55:27;98756.19;;;-3.55;94.46
35443;BME280;21561;55.654;37.592;2023-02-28T11:58:24;98741.84;;;-3.54;94.80
35443;BME280;21561;55.654;37.592;2023-02-28T12:06:38;98747.75;;;-3.54;95.65
35443;BME280;21561;55.654;37.592;2023-02-28T12:09:49;98771.56;;;-3.50;96.18
35443;BME280;21561;55.654;37.592;2023-02-28T12:18:00;98715.34;;;-3.62;100.00
35443;BME280;21561;55.654;37.592;2023-02-28T12:29:43;98701.50;;;-3.72;100.00
35443;BME280;21561;55.654;37.592;2023-02-28T12:32:20;98731.84;;;-3.74;100.00
35443;BME280;21561;55.654;37.592;2023-02-28T12:34:52;98714.97;;;-3.73;100.00
35443;BME280;21561;55.654;37.592;2023-02-28T12:37:27;98715.84;;;-3.73;100.00
35443;BME280;21561;55.654;37.592;2023-02-28T12:40:03;98729.44;;;-3.71;100.00
35443;BME280;21561;55.654;37.592;2023-02-28T12:42:38;98716.66;;;-3.74;100.00
35443;BME280;21561;55.654;37.592;2023-02-28T12:45:11;98679.28;;;-3.79;100.00
35443;BME280;21561;55.654;37.592;2023-02-28T12:47:42;98720.81;;;-3.76;100.00
35443;BME280;21561;55.654;37.592;2023-02-28T12:50:11;98691.78;;;-3.84;100.00
35443;BME280;21561;55.654;37.592;2023-02-28T12:55:23;98693.41;;;-3.86;100.00
35443;BME280;21561;55.654;37.592;2023-02-28T13:01:36;98656.41;;;-3.81;100.00
35443;BME280;21561;55.654;37.592;2023-02-28T13:07:04;98648.00;;;-3.80;100.00
35443;BME280;21561;55.654;37.592;2023-02-28T13:09:34;98680.91;;;-3.81;100.00
35443;BME280;21561;55.654;37.592;2023-02-28T13:12:01;98631.28;;;-3.75;100.00
35443;BME280;21561;55.654;37.592;2023-02-28T13:17:25;98623.06;;;-3.68;100.00
35443;BME280;21561;55.654;37.592;2023-02-28T13:27:52;98633.50;;;-3.58;100.00
35443;BME280;21561;55.654;37.592;2023-02-28T13:44:20;98625.47;;;-3.45;100.00
35443;BME280;21561;55.654;37.592;2023-02-28T13:55:13;98594.47;;;-3.36;100.00
35443;BME280;21561;55.654;37.592;2023-02-28T13:58:10;98588.72;;;-3.31;100.00
35443;BME280;21561;55.654;37.592;2023-02-28T14:06:29;98585.28;;;-3.33;100.00
35443;BME280;21561;55.654;37.592;2023-02-28T14:11:41;98585.38;;;-3.30;100.00
35443;BME280;21561;55.654;37.592;2023-02-28T14:14:09;98588.81;;;-3.28;100.00
35443;BME280;21561;55.654;37.592;2023-02-28T14:16:57;98605.84;;;-3.23;100.00
35443;BME280;21561;55.654;37.592;2023-02-28T14:19:27;98605.94;;;-3.20;100.00
35443;BME280;21561;55.654;37.592;2023-02-28T14:30:36;98576.44;;;-3.17;100.00
35443;BME280;21561;55.654;37.592;2023-02-28T14:36:10;98574.97;;;-3.10;100.00
35443;BME280;21561;55.654;37.592;2023-02-28T14:38:46;98587.66;;;-3.10;100.00
35443;BME280;21561;55.654;37.592;2023-02-28T14:41:21;98570.75;;;-3.10;100.00
35443;BME280;21561;55.654;37.592;2023-02-28T14:43:53;98541.19;;;-3.08;100.00
35443;BME280;21561;55.654;37.592;2023-02-28T14:46:22;98572.34;;;-3.13;100.00
35443;BME280;21561;55.654;37.592;2023-02-28T14:48:50;98580.75;;;-3.14;100.00
35443;BME280;21561;55.654;37.592;2023-02-28T14:51:22;98556.25;;;-3.14;100.00
35443;BME280;21561;55.654;37.592;2023-02-28T14:54:00;98564.88;;;-3.09;100.00
35443;BME280;21561;55.654;37.592;2023-02-28T14:56:37;98562.97;;;-3.16;100.00
35443;BME280;21561;55.654;37.592;2023-02-28T14:59:05;98545.19;;;-3.16;100.00
35443;BME280;21561;55.654;37.592;2023-02-28T15:01:45;98546.00;;;-3.17;100.00
35443;BME280;21561;55.654;37.592;2023-02-28T15:04:21;98545.31;;;-3.11;100.00
35443;BME280;21561;55.654;37.592;2023-02-28T15:07:10;98560.69;;;-3.07;100.00
35443;BME280;21561;55.654;37.592;2023-02-28T15:09:37;98538.72;;;-3.06;100.00
35443;BME280;21561;55.654;37.592;2023-02-28T15:12:05;98553.16;;;-3.03;100.00
35443;BME280;21561;55.654;37.592;2023-02-28T15:14:32;98533.78;;;-3.00;100.00
35443;BME280;21561;55.654;37.592;2023-02-28T15:17:02;98542.34;;;-2.98;100.00
35443;BME280;21561;55.654;37.592;2023-02-28T15:19:34;98536.47;;;-2.95;100.00
35443;BME280;21561;55.654;37.592;2023-02-28T15:22:11;98523.94;;;-2.91;100.00